Terminal Aerodrome Forecast
Issued by NWS

Home | Current Version | Previous Version | Graphics & Text | Print | Product List | Glossary On
Versions: 1 2 3 4 5 6 7 8 9 10 11 12 13 14 15 16 17 18 19 20 21 22 23 24 25 26
000
FTUS43 KMPX 250954 AAB
TAFRWF
TAF AMD
KRWF 250954Z 2510/2606 34006KT 5SM SHRA BR BKN008 OVC010
      TEMPO 2510/2514 2SM BR SCT007 OVC015
     FM251700 35006KT P6SM SCT007 OVC010
     FM252300 35008KT P6SM -SHRA BKN007 OVC012
     FM260300 01006KT 4SM -SHRA BR OVC007
      TEMPO 2603/2606 1SM -SHRA BR OVC003=

USA.gov is the U.S. government's official web portal to all federal, state and local government web resources and services.